Time;durP1;ratioP1;P1;durP2;ratioP2;P2;SDS_P1;SDS_P2;PMS_P1;PMS_P2;Temp;Humidity;BMP_temperature;BMP_pressure;BME280_temperature;BME280_humidity;BME280_pressure;Samples;Min_cycle;Max_cycle;Signal;HPM_P1;HPM_P2
2022/11/12 00:01:14;;;;;;;106.90;40.10;;;5.20;99.90;;;;;;5067291;28;20579;-51
2022/11/12 00:03:42;;;;;;;75.73;50.43;;;5.20;99.90;;;;;;5067053;28;20317;-51
2022/11/12 00:06:10;;;;;;;60.17;40.47;;;5.20;99.90;;;;;;5065709;28;20222;-51
2022/11/12 00:08:39;;;;;;;191.13;56.87;;;5.30;99.90;;;;;;5071545;28;20295;-51
2022/11/12 00:11:07;;;;;;;81.83;29.47;;;5.30;99.90;;;;;;5071335;28;20251;-51
2022/11/12 00:13:36;;;;;;;68.30;31.40;;;5.30;99.90;;;;;;5070115;28;20289;-51
2022/11/12 00:16:05;;;;;;;87.17;43.77;;;5.30;99.90;;;;;;5071202;28;20240;-51
2022/11/12 00:18:33;;;;;;;54.40;20.63;;;5.30;99.90;;;;;;5070157;28;20205;-50
2022/11/12 00:21:01;;;;;;;82.67;24.37;;;5.40;99.90;;;;;;5069558;28;20232;-52
2022/11/12 00:23:29;;;;;;;57.30;27.87;;;5.50;99.90;;;;;;5070131;28;20308;-50
2022/11/12 00:26:02;;;;;;;131.00;50.77;;;5.50;99.90;;;;;;5070170;28;20922;-51
2022/11/12 00:28:30;;;;;;;158.67;31.73;;;5.50;99.90;;;;;;5070639;28;20586;-52
2022/11/12 00:31:09;;;;;;;187.57;36.40;;;5.50;99.90;;;;;;5070648;28;20240;-51
2022/11/12 00:33:40;;;;;;;182.20;44.47;;;5.50;99.90;;;;;;5069299;28;20962;-51
2022/11/12 00:36:09;;;;;;;220.27;59.13;;;5.50;99.90;;;;;;5070533;28;20284;-51
2022/11/12 00:38:37;;;;;;;264.70;70.87;;;5.40;99.90;;;;;;5070212;28;20749;-51
2022/11/12 00:41:07;;;;;;;110.43;41.03;;;5.50;99.90;;;;;;5070493;28;20209;-51
2022/11/12 00:43:35;;;;;;;68.40;28.80;;;5.40;99.90;;;;;;5070505;28;20201;-52
2022/11/12 00:46:03;;;;;;;196.70;61.53;;;5.40;99.90;;;;;;5070926;28;20233;-51
2022/11/12 00:48:31;;;;;;;113.07;45.73;;;5.40;99.90;;;;;;5070534;28;20291;-51
2022/11/12 00:51:00;;;;;;;138.63;66.77;;;5.40;99.90;;;;;;5069788;28;20945;-51
2022/11/12 00:53:28;;;;;;;91.80;46.10;;;5.40;99.90;;;;;;5068869;28;20308;-51
2022/11/12 00:56:01;;;;;;;439.00;89.83;;;5.50;99.90;;;;;;5069404;28;20295;-52
2022/11/12 00:58:31;;;;;;;38.63;27.47;;;5.40;99.90;;;;;;5069071;28;20289;-52
2022/11/12 01:01:05;;;;;;;56.13;39.03;;;5.40;99.90;;;;;;5069417;28;20205;-51
2022/11/12 01:03:33;;;;;;;44.03;24.27;;;5.40;99.90;;;;;;5066119;28;20211;-52
2022/11/12 01:06:03;;;;;;;121.10;57.90;;;5.40;99.90;;;;;;5070154;28;20224;-51
2022/11/12 01:08:31;;;;;;;118.17;55.87;;;5.40;99.90;;;;;;5070458;28;20209;-51
2022/11/12 01:11:06;;;;;;;50.60;39.13;;;5.40;99.90;;;;;;5069886;28;20747;-51
2022/11/12 01:13:36;;;;;;;65.03;44.13;;;5.30;99.90;;;;;;5069473;28;20239;-51
2022/11/12 01:16:13;;;;;;;153.13;70.83;;;5.30;99.90;;;;;;5069695;28;20211;-51
2022/11/12 01:18:42;;;;;;;101.90;39.57;;;5.30;99.90;;;;;;5069941;28;20304;-51
2022/11/12 01:21:10;;;;;;;94.40;27.53;;;5.30;99.90;;;;;;5069424;28;20209;-52
2022/11/12 01:23:40;;;;;;;58.03;37.40;;;5.30;99.90;;;;;;5069263;28;20324;-51
2022/11/12 01:26:10;;;;;;;131.97;41.93;;;5.30;99.90;;;;;;5069217;28;20568;-52
2022/11/12 01:28:39;;;;;;;41.50;19.43;;;5.30;99.90;;;;;;5069617;28;20287;-51
2022/11/12 01:31:13;;;;;;;48.47;26.43;;;5.30;99.90;;;;;;5068961;28;20814;-51
2022/11/12 01:33:42;;;;;;;43.90;26.73;;;5.40;99.90;;;;;;5068073;28;20244;-51
2022/11/12 01:36:12;;;;;;;73.50;48.70;;;5.40;99.90;;;;;;5063099;28;20292;-51
2022/11/12 01:38:41;;;;;;;67.13;33.53;;;5.40;99.90;;;;;;5066902;28;20336;-51
2022/11/12 01:41:12;;;;;;;79.27;30.90;;;5.30;99.90;;;;;;5068926;28;20240;-52
2022/11/12 01:43:41;;;;;;;56.53;42.27;;;5.30;99.90;;;;;;5068763;28;20293;-51
2022/11/12 01:46:16;;;;;;;102.67;51.53;;;5.30;99.90;;;;;;5069558;28;20314;-51
2022/11/12 01:48:49;;;;;;;36.87;28.90;;;5.30;99.90;;;;;;5067683;28;20837;-52
2022/11/12 01:51:19;;;;;;;94.13;38.10;;;5.30;99.90;;;;;;5069470;28;20669;-51
2022/11/12 01:53:51;;;;;;;85.17;42.70;;;5.30;99.90;;;;;;5068454;28;20231;-52
2022/11/12 01:56:20;;;;;;;159.60;32.73;;;5.30;99.90;;;;;;5069833;28;20263;-51
2022/11/12 01:58:59;;;;;;;116.10;28.50;;;5.30;99.90;;;;;;5068795;28;20296;-52
2022/11/12 02:01:27;;;;;;;159.60;43.33;;;5.40;99.90;;;;;;5065795;28;20320;-51
2022/11/12 02:03:56;;;;;;;166.87;41.67;;;5.40;99.90;;;;;;5068707;28;20213;-52
2022/11/12 02:06:25;;;;;;;182.53;36.03;;;5.40;99.90;;;;;;5065212;28;20227;-52
2022/11/12 02:08:53;;;;;;;334.70;97.73;;;5.40;99.90;;;;;;5069223;28;20296;-51
2022/11/12 02:11:22;;;;;;;222.97;54.83;;;5.30;99.90;;;;;;5068305;28;20303;-51
2022/11/12 02:13:58;;;;;;;247.97;58.33;;;5.30;99.90;;;;;;5067398;28;20661;-50
2022/11/12 02:16:28;;;;;;;141.07;35.10;;;5.30;99.90;;;;;;5068494;28;20211;-51
2022/11/12 02:18:57;;;;;;;135.67;50.83;;;5.30;99.90;;;;;;5067535;28;20296;-52
2022/11/12 02:21:27;;;;;;;155.40;59.60;;;5.30;99.90;;;;;;5068237;28;20657;-51
2022/11/12 02:24:00;;;;;;;106.37;31.37;;;5.30;99.90;;;;;;5059267;28;20349;-51
2022/11/12 02:26:32;;;;;;;179.30;47.87;;;5.20;99.90;;;;;;5063762;28;20658;-51
2022/11/12 02:29:00;;;;;;;107.97;44.17;;;5.20;99.90;;;;;;5068249;28;20677;-51
2022/11/12 02:31:28;;;;;;;163.73;52.47;;;5.20;99.90;;;;;;5071202;28;20748;-51
2022/11/12 02:33:57;;;;;;;102.80;46.93;;;5.10;99.90;;;;;;5070850;28;20709;-51
2022/11/12 02:36:26;;;;;;;122.33;43.00;;;5.10;99.90;;;;;;5067115;28;20281;-51
2022/11/12 02:38:54;;;;;;;184.97;49.60;;;5.10;99.90;;;;;;5068626;28;20303;-51
2022/11/12 02:41:23;;;;;;;199.83;42.63;;;5.10;99.90;;;;;;5068572;28;20256;-51
2022/11/12 02:43:51;;;;;;;196.20;43.50;;;5.10;99.90;;;;;;5065166;28;20782;-51
2022/11/12 02:46:19;;;;;;;239.87;40.00;;;5.20;99.90;;;;;;5070397;28;20213;-51
2022/11/12 02:48:47;;;;;;;214.53;26.73;;;5.20;99.90;;;;;;5066510;28;20209;-51
2022/11/12 02:51:15;;;;;;;249.73;30.33;;;5.30;99.90;;;;;;5067509;28;20449;-51
2022/11/12 02:53:45;;;;;;;175.30;33.00;;;5.30;99.90;;;;;;5068031;28;20297;-51
2022/11/12 02:56:13;;;;;;;194.77;40.20;;;5.20;99.90;;;;;;5070768;28;20736;-51
2022/11/12 02:58:41;;;;;;;214.10;53.93;;;5.20;99.90;;;;;;5072134;28;20295;-51
2022/11/12 03:01:09;;;;;;;229.60;30.63;;;5.10;99.90;;;;;;5070483;28;20287;-51
2022/11/12 03:03:37;;;;;;;212.50;50.53;;;5.10;99.90;;;;;;5068484;28;20315;-51
2022/11/12 03:06:06;;;;;;;234.33;37.80;;;5.10;99.90;;;;;;5065346;28;20316;-52
2022/11/12 03:08:34;;;;;;;165.47;28.57;;;5.10;99.90;;;;;;5069534;28;20205;-50
2022/11/12 03:11:08;;;;;;;137.23;40.60;;;5.10;99.90;;;;;;5068234;28;20292;-52
2022/11/12 03:13:37;;;;;;;87.93;36.37;;;5.00;99.90;;;;;;5066282;28;20311;-51
2022/11/12 03:16:05;;;;;;;64.93;33.93;;;4.90;99.90;;;;;;5071000;28;20208;-51
2022/11/12 03:18:34;;;;;;;29.77;24.03;;;4.80;99.90;;;;;;5070748;28;20291;-52
2022/11/12 03:21:02;;;;;;;43.47;36.13;;;4.70;99.90;;;;;;5071149;28;20293;-51
2022/11/12 03:23:30;;;;;;;46.23;38.67;;;4.60;99.90;;;;;;5067415;28;20311;-52
2022/11/12 03:25:58;;;;;;;42.03;37.53;;;4.60;99.90;;;;;;5069151;28;20253;-52
2022/11/12 03:28:28;;;;;;;56.17;34.90;;;4.50;99.90;;;;;;5070254;28;20301;-51
2022/11/12 03:30:58;;;;;;;32.50;29.23;;;4.50;99.90;;;;;;5070766;28;20753;-50
2022/11/12 03:33:27;;;;;;;71.90;35.10;;;4.50;99.90;;;;;;5068830;28;20343;-50
2022/11/12 03:35:55;;;;;;;273.60;78.07;;;4.50;99.90;;;;;;5068869;28;20295;-55
2022/11/12 03:38:23;;;;;;;45.17;36.47;;;4.40;99.90;;;;;;5070377;28;20307;-51
2022/11/12 03:40:51;;;;;;;45.23;34.60;;;4.40;99.90;;;;;;5069196;28;20220;-51
2022/11/12 03:43:19;;;;;;;80.93;45.13;;;4.40;99.90;;;;;;5073325;28;20320;-51
2022/11/12 03:45:49;;;;;;;181.93;69.77;;;4.30;99.90;;;;;;5075765;28;20310;-51
2022/11/12 03:48:17;;;;;;;42.57;36.97;;;4.20;99.90;;;;;;5073470;28;20292;-50
2022/11/12 03:50:45;;;;;;;55.07;31.73;;;4.20;99.90;;;;;;5075083;28;20290;-51
2022/11/12 03:53:13;;;;;;;90.33;46.47;;;4.10;99.90;;;;;;5071663;28;20324;-50
2022/11/12 03:55:41;;;;;;;86.77;48.27;;;4.20;99.90;;;;;;5072937;28;20749;-50
2022/11/12 03:58:09;;;;;;;169.13;59.37;;;4.20;99.90;;;;;;5071991;28;20744;-50
2022/11/12 04:00:37;;;;;;;78.23;33.30;;;4.20;99.90;;;;;;5074892;28;20245;-51
2022/11/12 04:03:06;;;;;;;75.67;26.53;;;4.20;99.90;;;;;;5071376;28;20311;-52
2022/11/12 04:08:38;;;;;;;102.07;36.40;;;4.20;99.90;;;;;;5071376;28;20225;-51
2022/11/12 04:11:08;;;;;;;114.00;52.40;;;4.10;99.90;;;;;;5074003;28;20223;-51
2022/11/12 04:13:37;;;;;;;86.43;40.57;;;4.10;99.90;;;;;;5073206;28;20659;-51
2022/11/12 04:21:50;;;;;;;41.07;20.67;;;4.00;99.90;;;;;;5069084;28;20279;-52
2022/11/12 04:27:08;;;;;;;112.43;38.90;;;4.10;99.90;;;;;;5073889;28;20223;-51
2022/11/12 04:32:22;;;;;;;96.23;37.70;;;4.00;99.90;;;;;;5073190;28;20786;-52
2022/11/12 04:34:52;;;;;;;164.17;49.03;;;4.00;99.90;;;;;;5073350;28;20304;-50
2022/11/12 04:37:21;;;;;;;293.10;81.27;;;4.00;99.90;;;;;;5076630;28;20629;-51
2022/11/12 04:39:50;;;;;;;127.70;39.43;;;4.00;99.90;;;;;;5071427;28;20953;-51
2022/11/12 04:45:16;;;;;;;141.13;47.30;;;4.00;99.90;;;;;;4988205;28;20211;-51
2022/11/12 04:47:44;;;;;;;200.80;48.13;;;4.00;99.90;;;;;;5050415;28;20270;-50
2022/11/12 04:50:16;;;;;;;365.07;99.03;;;4.00;99.90;;;;;;5073245;28;20296;-50
2022/11/12 04:52:44;;;;;;;157.17;55.97;;;4.00;99.90;;;;;;5072553;28;20251;-51
2022/11/12 04:55:12;;;;;;;140.23;23.73;;;4.00;99.90;;;;;;5071198;28;20371;-52
2022/11/12 04:57:40;;;;;;;77.70;34.73;;;4.00;99.90;;;;;;5070538;28;20683;-51
2022/11/12 05:00:10;;;;;;;67.10;46.07;;;4.00;99.90;;;;;;5072525;28;20303;-52
2022/11/12 05:02:38;;;;;;;61.23;38.87;;;4.00;99.90;;;;;;5067064;28;20605;-51
2022/11/12 05:05:07;;;;;;;45.73;26.00;;;3.90;99.90;;;;;;5070193;28;20297;-52
2022/11/12 05:07:37;;;;;;;69.00;38.30;;;3.90;99.90;;;;;;5070918;28;20616;-51
2022/11/12 05:10:05;;;;;;;98.30;56.30;;;3.90;99.90;;;;;;5071883;28;20627;-51
2022/11/12 05:12:33;;;;;;;36.67;22.80;;;3.80;99.90;;;;;;5070612;28;20232;-51
2022/11/12 05:15:02;;;;;;;67.20;44.87;;;3.80;99.90;;;;;;5074042;28;20238;-51
2022/11/12 05:17:30;;;;;;;84.27;41.17;;;3.70;99.90;;;;;;5070482;28;20291;-51
2022/11/12 05:19:58;;;;;;;63.30;31.50;;;3.70;99.90;;;;;;5073907;28;20208;-51
2022/11/12 05:22:26;;;;;;;97.03;44.17;;;3.80;99.90;;;;;;5072934;28;20340;-51
2022/11/12 05:25:15;;;;;;;99.03;38.53;;;3.70;99.90;;;;;;5068350;28;20576;-51
2022/11/12 05:27:43;;;;;;;72.97;29.33;;;3.70;99.90;;;;;;5068617;28;20336;-51
2022/11/12 05:30:12;;;;;;;75.10;36.20;;;3.70;99.90;;;;;;5068851;28;20293;-51
2022/11/12 05:32:40;;;;;;;91.83;45.17;;;3.80;99.90;;;;;;5066668;28;20321;-51
2022/11/12 05:35:08;;;;;;;99.63;40.20;;;3.70;99.90;;;;;;5063489;28;20742;-51
2022/11/12 05:37:36;;;;;;;93.50;37.33;;;3.60;99.90;;;;;;5068562;28;20290;-51
2022/11/12 05:40:06;;;;;;;138.47;42.93;;;3.70;99.90;;;;;;5068685;28;20291;-51
2022/11/12 05:42:35;;;;;;;98.33;42.20;;;3.70;99.90;;;;;;5067883;28;20414;-51
2022/11/12 05:45:04;;;;;;;46.40;33.13;;;3.70;99.90;;;;;;5067278;28;20293;-51
2022/11/12 05:47:32;;;;;;;46.80;31.57;;;3.70;99.90;;;;;;5066267;28;20218;-50
2022/11/12 05:50:00;;;;;;;45.00;36.07;;;3.80;99.90;;;;;;5067696;28;20205;-51
2022/11/12 05:52:28;;;;;;;178.53;72.60;;;3.80;99.90;;;;;;5067888;28;20800;-51
2022/11/12 05:54:56;;;;;;;52.27;46.83;;;3.80;99.90;;;;;;5068591;28;20207;-51
2022/11/12 05:57:27;;;;;;;84.90;71.10;;;3.80;99.90;;;;;;5068275;28;20320;-52
2022/11/12 05:59:56;;;;;;;49.17;43.80;;;3.90;99.90;;;;;;5065282;28;20645;-51
2022/11/12 06:02:24;;;;;;;120.77;62.20;;;3.90;99.90;;;;;;5070228;28;20252;-51
2022/11/12 06:04:52;;;;;;;61.83;55.10;;;3.90;99.90;;;;;;5076212;28;20215;-51
2022/11/12 06:07:20;;;;;;;173.17;75.80;;;3.90;99.90;;;;;;5069504;28;20324;-51
2022/11/12 06:09:48;;;;;;;45.60;35.43;;;3.90;99.90;;;;;;5070192;28;20231;-51
2022/11/12 06:12:17;;;;;;;86.73;45.20;;;3.90;99.90;;;;;;5079727;28;20309;-51
2022/11/12 06:14:45;;;;;;;54.20;28.30;;;3.90;99.90;;;;;;5073939;28;20292;-51
2022/11/12 06:17:14;;;;;;;57.67;33.53;;;4.00;99.90;;;;;;5075157;28;20255;-51
2022/11/12 06:19:42;;;;;;;78.60;50.27;;;4.00;99.90;;;;;;5072722;28;20687;-51
2022/11/12 06:22:10;;;;;;;91.63;42.00;;;4.00;99.90;;;;;;5067502;28;20221;-51
2022/11/12 06:24:38;;;;;;;89.40;36.70;;;4.00;99.90;;;;;;5068212;28;20294;-51
2022/11/12 06:27:06;;;;;;;89.60;41.70;;;4.00;99.90;;;;;;5068090;28;20212;-51
2022/11/12 06:29:34;;;;;;;102.73;41.57;;;4.00;99.90;;;;;;5068258;28;20293;-51
2022/11/12 06:32:02;;;;;;;116.90;25.70;;;3.90;99.90;;;;;;5067935;28;20227;-51
2022/11/12 06:34:32;;;;;;;113.20;36.77;;;4.00;99.90;;;;;;5066467;28;20623;-51
2022/11/12 06:37:00;;;;;;;112.90;38.57;;;3.90;99.90;;;;;;5066644;28;20750;-51
2022/11/12 06:39:28;;;;;;;128.47;24.60;;;4.00;99.90;;;;;;5067437;28;20238;-51
2022/11/12 06:41:56;;;;;;;158.77;33.40;;;4.00;99.90;;;;;;5066710;28;20310;-51
2022/11/12 06:44:24;;;;;;;129.77;34.60;;;4.00;99.90;;;;;;5067487;28;20292;-52
2022/11/12 06:46:52;;;;;;;129.07;28.07;;;4.10;99.90;;;;;;5066097;28;20295;-52
2022/11/12 06:49:20;;;;;;;227.57;40.83;;;4.10;99.90;;;;;;5066334;28;20274;-51
2022/11/12 06:51:51;;;;;;;219.13;33.87;;;4.10;99.90;;;;;;5068136;28;20275;-52
2022/11/12 06:54:19;;;;;;;298.03;66.23;;;4.10;99.90;;;;;;5067821;28;20319;-51
2022/11/12 06:56:47;;;;;;;159.70;48.80;;;4.10;99.90;;;;;;5066730;28;20241;-51
2022/11/12 06:59:15;;;;;;;123.63;35.90;;;4.00;99.90;;;;;;5066552;28;20752;-51
2022/11/12 07:01:44;;;;;;;154.27;26.77;;;4.10;99.90;;;;;;5064506;28;20310;-52
2022/11/12 07:04:12;;;;;;;128.10;29.77;;;4.10;99.90;;;;;;5067258;28;20208;-51
2022/11/12 07:06:40;;;;;;;76.30;29.30;;;4.20;99.90;;;;;;5067542;28;20252;-51
2022/11/12 07:09:10;;;;;;;118.30;54.73;;;4.20;99.90;;;;;;5066445;28;20833;-52
2022/11/12 07:11:38;;;;;;;70.63;31.77;;;4.10;99.90;;;;;;5067092;28;20259;-52
2022/11/12 07:14:07;;;;;;;40.57;33.33;;;4.20;99.90;;;;;;5066075;28;20216;-52
2022/11/12 07:16:35;;;;;;;80.80;43.77;;;4.20;99.90;;;;;;5068027;28;20287;-52
2022/11/12 07:19:03;;;;;;;67.07;27.60;;;4.20;99.90;;;;;;5067421;28;20288;-51
2022/11/12 07:21:31;;;;;;;53.77;41.07;;;4.30;99.90;;;;;;5066904;28;20230;-51
2022/11/12 07:23:59;;;;;;;193.90;64.20;;;4.30;99.90;;;;;;5067359;28;20230;-52
2022/11/12 07:26:29;;;;;;;77.07;28.87;;;4.30;99.90;;;;;;5066865;28;20211;-52
2022/11/12 07:28:57;;;;;;;114.73;39.00;;;4.40;99.90;;;;;;5067518;28;20853;-51
2022/11/12 07:31:25;;;;;;;62.90;31.00;;;4.40;99.90;;;;;;5067383;28;20240;-50
2022/11/12 07:33:53;;;;;;;86.83;31.40;;;4.50;99.90;;;;;;5066358;28;20209;-51
2022/11/12 07:36:22;;;;;;;224.87;73.20;;;4.50;99.90;;;;;;5060676;28;20659;-51
2022/11/12 07:38:52;;;;;;;185.27;49.77;;;4.50;99.90;;;;;;5068833;28;20275;-51
2022/11/12 07:41:22;;;;;;;97.80;33.50;;;4.60;99.90;;;;;;5068724;28;20752;-51
2022/11/12 07:43:53;;;;;;;267.17;88.73;;;4.60;99.90;;;;;;5069042;28;20266;-52
2022/11/12 07:46:23;;;;;;;108.10;41.60;;;4.60;99.90;;;;;;5068265;28;20439;-52
2022/11/12 07:48:52;;;;;;;140.47;27.20;;;4.70;99.90;;;;;;5067867;28;20303;-52
2022/11/12 07:51:22;;;;;;;87.33;40.70;;;4.80;99.90;;;;;;5068442;28;20253;-52
2022/11/12 07:53:52;;;;;;;79.77;32.60;;;4.80;99.90;;;;;;5071166;28;20285;-51
2022/11/12 07:56:27;;;;;;;92.60;36.27;;;4.90;99.90;;;;;;5068222;28;20196;-52
2022/11/12 07:58:56;;;;;;;60.53;37.77;;;4.90;99.90;;;;;;5069857;28;20678;-52
2022/11/12 08:01:30;;;;;;;46.33;28.53;;;4.90;99.90;;;;;;5071937;28;20241;-52
2022/11/12 08:03:59;;;;;;;30.27;22.63;;;4.90;99.90;;;;;;5068184;28;20666;-51
2022/11/12 08:06:28;;;;;;;94.13;51.43;;;5.00;99.90;;;;;;5070464;28;20315;-51
2022/11/12 08:08:58;;;;;;;106.70;45.37;;;5.10;99.90;;;;;;5069413;28;20318;-51
2022/11/12 08:11:26;;;;;;;176.53;46.37;;;5.10;99.90;;;;;;5068619;28;20216;-51
2022/11/12 08:13:56;;;;;;;57.13;25.83;;;5.10;99.90;;;;;;5057399;28;20662;-51
2022/11/12 08:16:24;;;;;;;49.87;39.07;;;5.10;99.90;;;;;;5061790;28;20344;-51
2022/11/12 08:18:52;;;;;;;184.70;71.30;;;5.20;99.90;;;;;;5065265;28;20279;-51
2022/11/12 08:21:20;;;;;;;185.80;51.40;;;5.30;99.90;;;;;;5065837;28;20205;-51
2022/11/12 08:23:49;;;;;;;76.53;37.47;;;5.40;99.90;;;;;;5063753;28;20292;-51
2022/11/12 08:26:18;;;;;;;52.07;34.07;;;5.40;99.90;;;;;;5067586;28;20288;-52
2022/11/12 08:28:47;;;;;;;88.40;37.67;;;5.50;99.90;;;;;;5070194;28;20295;-51
2022/11/12 08:31:18;;;;;;;54.37;38.00;;;5.60;99.90;;;;;;5071595;28;20237;-52
2022/11/12 08:33:46;;;;;;;70.03;39.63;;;5.70;99.90;;;;;;5069495;28;20300;-51
2022/11/12 08:36:16;;;;;;;54.80;29.73;;;5.80;99.90;;;;;;5064508;28;20292;-51
2022/11/12 08:38:45;;;;;;;137.40;52.37;;;5.90;99.90;;;;;;5073584;28;20214;-51
2022/11/12 08:41:15;;;;;;;79.67;42.23;;;6.00;99.90;;;;;;5072527;28;20205;-51
2022/11/12 08:43:43;;;;;;;173.27;54.97;;;6.00;99.90;;;;;;5070814;28;20295;-51
2022/11/12 08:46:11;;;;;;;123.90;63.63;;;6.10;99.90;;;;;;5073749;28;20202;-51
2022/11/12 08:48:41;;;;;;;83.60;44.33;;;6.10;99.90;;;;;;5069326;28;20299;-52
2022/11/12 08:51:09;;;;;;;189.60;90.10;;;6.30;99.90;;;;;;5069939;28;20242;-52
2022/11/12 08:53:37;;;;;;;169.47;62.20;;;6.30;99.90;;;;;;5073619;28;20244;-51
2022/11/12 08:56:06;;;;;;;316.33;108.93;;;6.40;99.90;;;;;;5073324;28;20212;-51
2022/11/12 08:58:34;;;;;;;336.50;99.03;;;6.40;99.90;;;;;;5073263;28;20251;-52
2022/11/12 09:01:05;;;;;;;57.33;33.60;;;6.40;99.90;;;;;;5072867;28;20236;-51
2022/11/12 09:03:33;;;;;;;134.20;53.50;;;6.50;99.90;;;;;;5064719;28;20231;-51
2022/11/12 09:06:05;;;;;;;170.43;58.37;;;6.50;99.90;;;;;;5063251;28;20267;-52
2022/11/12 09:08:35;;;;;;;368.60;148.53;;;6.50;99.90;;;;;;5069403;28;20247;-52
2022/11/12 09:11:04;;;;;;;145.10;63.67;;;6.60;99.90;;;;;;5069980;28;20290;-50
2022/11/12 09:13:33;;;;;;;52.23;34.97;;;6.70;99.90;;;;;;5064078;28;20222;-52
2022/11/12 09:16:03;;;;;;;45.10;31.53;;;6.80;99.90;;;;;;5068787;28;20323;-50
2022/11/12 09:18:32;;;;;;;156.07;52.87;;;6.80;99.90;;;;;;5069555;28;20242;-52
2022/11/12 09:21:05;;;;;;;187.83;63.37;;;6.90;99.90;;;;;;5069487;28;20229;-51
2022/11/12 09:23:34;;;;;;;411.50;104.70;;;7.00;99.90;;;;;;5072624;28;20228;-51
2022/11/12 09:26:03;;;;;;;39.17;26.83;;;7.00;99.90;;;;;;5068670;28;20737;-52
2022/11/12 09:28:32;;;;;;;74.37;34.73;;;7.10;99.90;;;;;;5073368;28;20244;-51
2022/11/12 09:31:01;;;;;;;96.40;47.83;;;7.20;99.90;;;;;;5067267;28;20301;-51
2022/11/12 09:33:31;;;;;;;47.20;31.13;;;7.20;99.90;;;;;;5066156;28;20232;-52
2022/11/12 09:36:01;;;;;;;176.10;73.27;;;7.20;99.90;;;;;;5071258;28;20284;-51
2022/11/12 09:38:31;;;;;;;80.27;48.93;;;7.30;99.90;;;;;;5068294;28;20240;-51
2022/11/12 09:41:15;;;;;;;52.67;29.03;;;7.30;99.90;;;;;;5074952;28;20250;-51
2022/11/12 09:43:49;;;;;;;140.70;50.13;;;7.30;99.90;;;;;;5070128;28;20295;-51
2022/11/12 09:46:38;;;;;;;78.90;27.30;;;7.40;99.90;;;;;;5066896;28;20281;-52
2022/11/12 09:49:14;;;;;;;102.43;40.40;;;7.40;99.90;;;;;;5068431;28;20237;-51
2022/11/12 09:51:49;;;;;;;168.13;53.47;;;7.40;99.90;;;;;;5061459;28;20252;-51
2022/11/12 09:54:24;;;;;;;228.97;67.33;;;7.40;99.90;;;;;;5067244;28;20288;-51
2022/11/12 09:56:53;;;;;;;127.13;46.87;;;7.40;99.90;;;;;;5069696;28;20693;-51
2022/11/12 09:59:22;;;;;;;197.53;58.03;;;7.40;99.90;;;;;;5068234;28;20280;-52
2022/11/12 10:01:59;;;;;;;103.47;42.87;;;7.50;99.90;;;;;;5067276;28;20752;-52
2022/11/12 10:04:53;;;;;;;66.73;35.20;;;7.60;99.90;;;;;;5066470;28;20197;-51
2022/11/12 10:07:45;;;;;;;735.20;220.70;;;7.70;99.90;;;;;;5041621;28;20247;-51
2022/11/12 10:10:18;;;;;;;329.03;87.37;;;7.80;99.90;;;;;;5068164;28;20304;-51
2022/11/12 10:12:58;;;;;;;202.07;62.00;;;7.80;99.90;;;;;;5067939;28;20323;-51
2022/11/12 10:18:43;;;;;;;78.73;37.77;;;8.00;99.90;;;;;;5043645;28;20209;-52
2022/11/12 10:21:19;;;;;;;184.43;67.43;;;8.00;99.90;;;;;;5067909;28;20236;-51
2022/11/12 10:23:50;;;;;;;52.93;27.47;;;8.10;99.90;;;;;;5068059;28;20204;-51
2022/11/12 10:26:21;;;;;;;143.27;48.13;;;8.20;99.90;;;;;;5067052;28;20747;-51
2022/11/12 10:28:54;;;;;;;131.53;49.03;;;8.30;99.90;;;;;;5065848;28;20237;-51
2022/11/12 10:31:22;;;;;;;267.10;82.73;;;8.40;99.90;;;;;;5070344;28;20719;-52
2022/11/12 10:33:50;;;;;;;350.23;69.03;;;8.40;99.90;;;;;;5067026;28;20232;-52
2022/11/12 10:36:27;;;;;;;248.17;54.30;;;8.50;99.90;;;;;;5071273;28;20237;-52
2022/11/12 10:38:56;;;;;;;46.73;29.67;;;8.50;99.90;;;;;;5067731;28;20287;-52
2022/11/12 10:41:29;;;;;;;49.70;26.47;;;8.60;99.90;;;;;;5068375;28;20243;-52
2022/11/12 10:43:59;;;;;;;50.60;28.77;;;8.70;99.90;;;;;;5067977;28;20239;-52
2022/11/12 10:46:29;;;;;;;126.10;44.77;;;8.80;99.90;;;;;;5067696;28;20243;-53
2022/11/12 10:49:01;;;;;;;212.77;63.33;;;8.90;99.90;;;;;;5066986;28;20298;-52
2022/11/12 10:51:31;;;;;;;88.70;53.33;;;9.00;99.90;;;;;;5067601;28;20227;-52
2022/11/12 10:54:18;;;;;;;49.37;30.80;;;9.00;99.90;;;;;;5067585;28;20733;-52
2022/11/12 10:56:48;;;;;;;292.90;85.20;;;9.10;99.90;;;;;;5067275;28;20236;-53
2022/11/12 10:59:23;;;;;;;43.80;23.10;;;9.20;99.90;;;;;;5065412;28;20287;-52
2022/11/12 11:01:56;;;;;;;120.23;48.17;;;9.20;99.90;;;;;;5058265;28;20315;-52
2022/11/12 11:04:31;;;;;;;528.90;122.87;;;9.30;99.90;;;;;;5066811;28;20707;-52
2022/11/12 11:07:03;;;;;;;48.00;32.70;;;9.40;99.90;;;;;;5067316;28;20288;-53
2022/11/12 11:09:33;;;;;;;96.23;47.13;;;9.40;99.90;;;;;;5067418;28;20204;-52
2022/11/12 11:12:03;;;;;;;214.57;60.03;;;9.50;99.90;;;;;;5066198;28;20335;-53
2022/11/12 11:14:33;;;;;;;692.53;213.50;;;9.60;99.90;;;;;;5067924;28;20291;-53
2022/11/12 11:17:07;;;;;;;426.30;120.90;;;9.60;99.90;;;;;;5067435;28;20239;-52
2022/11/12 11:19:39;;;;;;;922.77;243.60;;;9.60;99.90;;;;;;5066919;28;20204;-53
2022/11/12 11:22:28;;;;;;;948.63;234.53;;;9.70;99.90;;;;;;5066850;28;20307;-52
2022/11/12 11:25:13;;;;;;;79.13;35.90;;;9.70;99.90;;;;;;5067597;28;20202;-52
2022/11/12 11:27:55;;;;;;;709.03;185.67;;;9.80;99.90;;;;;;5067605;28;20255;-53
2022/11/12 11:30:23;;;;;;;627.27;175.37;;;9.90;99.90;;;;;;5060665;28;20222;-52
2022/11/12 11:33:05;;;;;;;193.93;67.07;;;9.90;99.90;;;;;;5066325;28;20257;-52
2022/11/12 11:35:50;;;;;;;389.83;124.53;;;10.00;99.90;;;;;;5069261;28;20292;-53
2022/11/12 11:38:35;;;;;;;159.67;62.20;;;10.00;99.90;;;;;;5064187;28;20240;-52
2022/11/12 11:41:17;;;;;;;398.23;139.00;;;10.10;99.90;;;;;;5066642;28;20196;-53
2022/11/12 11:44:03;;;;;;;877.90;249.07;;;10.20;99.90;;;;;;5066431;28;20300;-53
2022/11/12 11:46:50;;;;;;;650.63;191.13;;;10.30;99.90;;;;;;5064482;28;20288;-53
2022/11/12 11:49:44;;;;;;;595.50;196.10;;;10.30;99.90;;;;;;5065427;28;20291;-52
2022/11/12 11:52:26;;;;;;;1043.07;308.00;;;10.30;99.90;;;;;;5059204;28;20292;-53
2022/11/12 11:55:09;;;;;;;1330.07;382.67;;;10.40;99.90;;;;;;5067231;28;20208;-52
2022/11/12 11:57:43;;;;;;;1028.17;268.87;;;10.40;99.90;;;;;;5066655;28;20296;-52
2022/11/12 12:00:18;;;;;;;121.73;49.77;;;10.40;99.90;;;;;;5066507;28;20303;-52
2022/11/12 12:03:04;;;;;;;1103.60;303.03;;;10.50;99.90;;;;;;5070014;28;20228;-52
2022/11/12 12:05:42;;;;;;;1221.83;344.33;;;10.50;99.90;;;;;;5070651;28;20233;-52
2022/11/12 12:08:18;;;;;;;983.50;318.17;;;10.60;99.90;;;;;;5067661;28;20287;-52
2022/11/12 12:10:55;;;;;;;536.10;159.20;;;10.60;99.90;;;;;;5067892;28;20791;-53
2022/11/12 12:13:50;;;;;;;1664.57;444.00;;;10.60;99.90;;;;;;5066618;28;20224;-52
2022/11/12 12:16:34;;;;;;;1393.30;328.20;;;10.60;99.90;;;;;;5070875;28;20284;-52
2022/11/12 12:19:11;;;;;;;524.57;157.00;;;10.70;99.90;;;;;;5070719;28;20288;-53
2022/11/12 12:21:44;;;;;;;1431.50;426.13;;;10.70;99.90;;;;;;5069500;28;20308;-52
2022/11/12 12:24:19;;;;;;;705.30;214.37;;;10.80;99.90;;;;;;5070684;28;20284;-52
2022/11/12 12:26:52;;;;;;;473.77;140.77;;;10.80;99.90;;;;;;5070924;28;20205;-52
2022/11/12 12:29:27;;;;;;;542.67;151.57;;;10.80;99.90;;;;;;5069025;28;20322;-52
2022/11/12 12:32:03;;;;;;;879.97;259.50;;;10.80;99.90;;;;;;5067663;28;20319;-53
2022/11/12 12:34:33;;;;;;;716.30;204.07;;;10.80;99.90;;;;;;5067333;28;20209;-52
2022/11/12 12:37:05;;;;;;;574.23;188.17;;;10.80;99.90;;;;;;5068288;28;20685;-52
2022/11/12 12:39:42;;;;;;;164.70;61.50;;;10.80;99.90;;;;;;5056230;28;20284;-52
2022/11/12 12:42:20;;;;;;;338.97;105.53;;;10.80;99.90;;;;;;5067662;28;20259;-52
2022/11/12 12:45:03;;;;;;;149.83;54.93;;;10.80;99.90;;;;;;5068878;28;20310;-52
2022/11/12 12:47:38;;;;;;;441.07;118.73;;;10.80;99.90;;;;;;5067432;28;20590;-51
2022/11/12 12:50:13;;;;;;;325.13;98.83;;;10.80;99.90;;;;;;5067363;28;20295;-52
2022/11/12 12:53:01;;;;;;;575.37;156.63;;;10.80;99.90;;;;;;5068997;28;20260;-52
2022/11/12 12:55:38;;;;;;;153.53;65.37;;;10.80;99.90;;;;;;5070297;28;20279;-52
2022/11/12 12:58:17;;;;;;;598.57;152.93;;;10.80;99.90;;;;;;5069300;28;20830;-53
2022/11/12 13:00:50;;;;;;;1324.10;393.13;;;10.80;99.90;;;;;;5067324;28;20278;-52
2022/11/12 13:03:55;;;;;;;368.50;105.83;;;10.80;99.90;;;;;;5064814;28;20240;-52
2022/11/12 13:06:27;;;;;;;440.07;140.17;;;10.80;99.90;;;;;;5069976;28;20300;-53
2022/11/12 13:09:00;;;;;;;156.83;51.97;;;10.80;99.90;;;;;;5068758;28;20308;-52